Time;durP1;ratioP1;P1;durP2;ratioP2;P2;SDS_P1;SDS_P2;PMS_P1;PMS_P2;Temp;Humidity;BMP_temperature;BMP_pressure;BME280_temperature;BME280_humidity;BME280_pressure;Samples;Min_cycle;Max_cycle;Signal;HPM_P1;HPM_P2
2021/10/01 00:01:36;;;;;;;0.93;0.60;;;;;;;10.25;59.79;99727.78;5150792;27;43031;-78
2021/10/01 00:04:04;;;;;;;1.23;0.83;;;;;;;10.23;60.10;99721.69;5151031;27;39919;-76
2021/10/01 00:06:32;;;;;;;1.37;1.03;;;;;;;10.19;60.51;99720.13;5150544;27;42267;-77
2021/10/01 00:08:59;;;;;;;0.60;0.60;;;;;;;10.12;60.66;99702.78;5149679;27;41552;-79
2021/10/01 00:11:27;;;;;;;0.70;0.60;;;;;;;10.12;60.41;99715.16;5150855;27;43235;-80
2021/10/01 00:13:56;;;;;;;1.77;1.00;;;;;;;10.06;60.33;99708.34;5150162;27;40956;-78
2021/10/01 00:16:23;;;;;;;0.60;0.60;;;;;;;9.98;60.21;99705.22;5150635;27;42010;-79
2021/10/01 00:18:50;;;;;;;0.67;0.57;;;;;;;9.99;60.23;99706.94;5150936;27;43747;-78
2021/10/01 00:21:18;;;;;;;1.07;0.50;;;;;;;9.85;60.56;99693.47;5149675;27;42519;-77
2021/10/01 00:23:45;;;;;;;0.53;0.53;;;;;;;9.93;60.19;99712.50;5132285;27;40956;-79
2021/10/01 00:26:13;;;;;;;0.60;0.60;;;;;;;9.88;60.39;99711.88;5167387;27;41680;-78
2021/10/01 00:28:40;;;;;;;0.80;0.77;;;;;;;9.81;60.56;99699.84;5149227;27;41724;-77
2021/10/01 00:31:10;;;;;;;1.00;0.53;;;;;;;9.79;60.54;99699.03;5153722;27;42364;-76
2021/10/01 00:33:37;;;;;;;1.20;0.80;;;;;;;9.73;60.69;99701.06;5173990;27;40329;-77
2021/10/01 00:36:05;;;;;;;0.60;0.60;;;;;;;9.69;60.99;99694.19;5157022;27;41071;-76
2021/10/01 00:38:32;;;;;;;0.57;0.53;;;;;;;9.60;61.26;99686.66;5156814;27;43341;-76
2021/10/01 00:41:00;;;;;;;1.90;0.80;;;;;;;9.62;61.06;99698.03;5159294;27;41292;-78
2021/10/01 00:43:27;;;;;;;1.60;0.97;;;;;;;9.59;61.31;99692.88;5158604;27;40325;-79
2021/10/01 00:45:56;;;;;;;0.83;0.60;;;;;;;9.53;61.79;99679.91;5152342;27;41361;-75
2021/10/01 00:48:25;;;;;;;1.03;0.50;;;;;;;9.53;61.96;99681.72;5170702;27;43856;-79
2021/10/01 00:50:52;;;;;;;0.60;0.60;;;;;;;9.49;62.45;99675.72;5152991;27;42175;-78
2021/10/01 00:53:21;;;;;;;1.53;0.57;;;;;;;9.46;62.84;99683.78;5135234;27;39964;-77
2021/10/01 00:55:48;;;;;;;0.73;0.70;;;;;;;9.41;62.92;99672.53;5171210;27;41812;-78
2021/10/01 00:58:16;;;;;;;0.63;0.50;;;;;;;9.42;62.38;99682.19;5135453;27;42642;-76
2021/10/01 01:00:54;;;;;;;1.53;0.60;;;;;;;9.39;62.43;99679.72;5170970;27;43619;-80
2021/10/01 01:03:24;;;;;;;0.67;0.67;;;;;;;9.36;62.86;99678.06;5171220;27;39788;-79
2021/10/01 01:06:03;;;;;;;0.60;0.60;;;;;;;9.34;62.67;99679.03;5154762;27;41808;-79
2021/10/01 01:08:40;;;;;;;0.70;0.70;;;;;;;9.31;62.79;99668.59;5154225;27;42788;-79
2021/10/01 01:11:16;;;;;;;0.60;0.57;;;;;;;9.19;62.79;99651.50;5152705;27;41271;-79
2021/10/01 01:13:49;;;;;;;0.50;0.50;;;;;;;9.22;62.62;99674.28;5135672;27;40088;-80
2021/10/01 01:16:24;;;;;;;0.60;0.60;;;;;;;9.24;62.22;99670.66;5152131;27;41495;-79
2021/10/01 01:18:59;;;;;;;0.43;0.43;;;;;;;9.17;62.26;99665.69;5170150;27;42743;-80
2021/10/01 01:21:42;;;;;;;0.67;0.50;;;;;;;9.15;62.11;99664.94;5152820;27;41279;-80
2021/10/01 01:24:24;;;;;;;0.40;0.40;;;;;;;9.12;62.07;99662.41;5170155;27;40729;-78
2021/10/01 01:27:18;;;;;;;0.40;0.40;;;;;;;8.99;62.00;99654.16;5152788;27;42644;-80
2021/10/01 01:29:59;;;;;;;0.50;0.50;;;;;;;9.02;62.29;99664.59;5135168;27;41941;-77
2021/10/01 01:32:31;;;;;;;1.13;0.50;;;;;;;8.96;62.03;99660.44;5152531;27;41280;-77
2021/10/01 01:35:05;;;;;;;0.80;0.60;;;;;;;8.93;62.34;99660.56;5136060;27;39198;-79
2021/10/01 01:37:38;;;;;;;0.77;0.70;;;;;;;8.87;62.29;99655.56;5135445;27;41695;-78
2021/10/01 01:40:08;;;;;;;0.93;0.53;;;;;;;8.84;62.63;99650.38;5152767;27;42033;-77
2021/10/01 01:42:38;;;;;;;0.53;0.53;;;;;;;8.77;62.59;99643.66;5153286;27;42623;-80
2021/10/01 01:45:09;;;;;;;0.47;0.40;;;;;;;8.77;62.59;99648.94;5152494;27;39055;-79
2021/10/01 01:47:40;;;;;;;0.60;0.50;;;;;;;8.73;62.73;99644.72;5152978;27;40525;-79
2021/10/01 01:50:09;;;;;;;1.00;1.00;;;;;;;8.68;62.76;99644.03;5133672;27;42106;-77
2021/10/01 01:52:41;;;;;;;0.80;0.60;;;;;;;8.64;62.58;99650.38;5134731;27;41116;-77
2021/10/01 01:55:10;;;;;;;0.50;0.50;;;;;;;8.60;62.61;99648.78;5151476;27;40523;-79
2021/10/01 01:57:38;;;;;;;0.50;0.50;;;;;;;8.56;62.75;99645.41;5152719;27;41818;-77
2021/10/01 02:00:08;;;;;;;0.60;0.60;;;;;;;8.53;62.69;99645.53;5168991;27;41631;-79
2021/10/01 02:02:54;;;;;;;0.50;0.50;;;;;;;8.48;62.91;99641.38;5150991;27;41269;-80
2021/10/01 02:05:24;;;;;;;0.47;0.40;;;;;;;8.33;62.79;99623.53;5169991;27;40867;-77
2021/10/01 02:07:55;;;;;;;0.70;0.60;;;;;;;8.42;63.28;99638.97;5134946;27;40598;-80
2021/10/01 02:10:25;;;;;;;0.43;0.43;;;;;;;8.38;63.92;99632.13;5134464;27;43298;-76
2021/10/01 02:12:55;;;;;;;0.57;0.50;;;;;;;8.34;64.19;99633.16;5152230;27;43310;-77
2021/10/01 02:15:24;;;;;;;0.70;0.70;;;;;;;8.32;64.01;99629.72;5152226;27;40952;-78
2021/10/01 02:17:57;;;;;;;0.63;0.63;;;;;;;8.27;64.51;99630.75;5152477;27;41718;-77
2021/10/01 02:20:26;;;;;;;1.60;0.50;;;;;;;8.25;64.58;99627.31;5151763;27;42796;-76
2021/10/01 02:22:54;;;;;;;0.70;0.70;;;;;;;8.24;64.95;99624.75;5151961;27;42388;-79
2021/10/01 02:28:10;;;;;;;0.60;0.60;;;;;;;8.21;64.28;99627.50;5134554;27;41676;-80
2021/10/01 02:30:40;;;;;;;0.80;0.63;;;;;;;8.17;64.92;99610.91;5151987;27;42672;-78
2021/10/01 02:33:14;;;;;;;1.00;0.70;;;;;;;8.16;65.10;99614.47;5152123;27;43149;-78
2021/10/01 02:35:42;;;;;;;0.60;0.50;;;;;;;8.14;65.34;99618.13;5153469;27;40002;-79
2021/10/01 02:38:10;;;;;;;0.53;0.47;;;;;;;8.13;64.75;99619.91;5133925;27;41539;-77
2021/10/01 02:40:37;;;;;;;0.50;0.50;;;;;;;8.10;64.71;99620.00;5133956;27;41857;-80
2021/10/01 02:43:05;;;;;;;0.50;0.50;;;;;;;8.09;64.71;99614.81;5151765;27;42303;-78
2021/10/01 02:45:33;;;;;;;0.53;0.40;;;;;;;8.06;64.27;99615.78;5134154;27;39047;-77
2021/10/01 02:48:01;;;;;;;0.60;0.60;;;;;;;8.05;64.41;99615.84;5151399;27;41675;-80
2021/10/01 02:50:31;;;;;;;0.50;0.50;;;;;;;8.03;64.16;99609.78;5133258;27;41994;-78
2021/10/01 02:53:06;;;;;;;0.47;0.47;;;;;;;8.02;64.32;99605.44;5151176;27;42270;-79
2021/10/01 02:55:42;;;;;;;0.63;0.63;;;;;;;8.00;64.34;99613.41;5133273;27;40103;-77
2021/10/01 02:58:16;;;;;;;1.13;0.40;;;;;;;7.98;64.27;99609.97;5151063;27;42722;-80
2021/10/01 03:00:44;;;;;;;1.87;0.50;;;;;;;7.95;64.57;99599.53;5133838;27;41807;-80
2021/10/01 03:03:16;;;;;;;0.57;0.57;;;;;;;7.97;64.35;99602.09;5151450;27;43470;-78
2021/10/01 03:05:45;;;;;;;0.50;0.50;;;;;;;7.90;64.39;99596.22;5151871;27;39975;-76
2021/10/01 03:08:18;;;;;;;0.33;0.33;;;;;;;7.93;64.11;99601.34;5133771;27;41577;-80
2021/10/01 03:10:49;;;;;;;0.30;0.30;;;;;;;7.91;64.20;99597.94;5133028;27;42310;-77
2021/10/01 03:13:17;;;;;;;0.60;0.53;;;;;;;7.88;64.15;99595.44;5151574;27;42429;-78
2021/10/01 03:15:45;;;;;;;0.40;0.40;;;;;;;7.84;64.37;99591.19;5150883;27;40164;-80
2021/10/01 03:18:13;;;;;;;0.40;0.40;;;;;;;7.81;64.43;99596.56;5133201;27;42041;-77
2021/10/01 03:20:42;;;;;;;0.67;0.50;;;;;;;7.77;64.63;99593.22;5133165;27;41648;-76
2021/10/01 03:23:11;;;;;;;0.40;0.40;;;;;;;7.73;64.58;99586.34;5168463;27;42396;-80
2021/10/01 03:25:39;;;;;;;0.40;0.40;;;;;;;7.71;64.41;99587.31;5168970;27;40220;-76
2021/10/01 03:28:07;;;;;;;0.40;0.40;;;;;;;7.69;64.54;99583.88;5151024;27;41631;-79
2021/10/01 03:30:35;;;;;;;0.93;0.50;;;;;;;7.56;64.67;99560.63;5150393;27;42185;-77
2021/10/01 03:33:02;;;;;;;0.70;0.50;;;;;;;7.65;64.42;99574.38;5150989;27;42447;-80
2021/10/01 03:35:30;;;;;;;0.60;0.60;;;;;;;7.60;64.47;99566.66;5133059;27;38964;-76
2021/10/01 03:37:59;;;;;;;0.40;0.40;;;;;;;7.62;64.30;99574.50;5151298;27;41658;-78
2021/10/01 03:40:32;;;;;;;0.77;0.60;;;;;;;7.60;64.61;99568.41;5166959;27;42831;-78
2021/10/01 03:43:00;;;;;;;0.80;0.60;;;;;;;7.58;64.75;99571.09;5168033;27;42252;-80
2021/10/01 03:45:28;;;;;;;0.50;0.50;;;;;;;7.56;64.95;99565.03;5150330;27;40912;-78
2021/10/01 03:47:55;;;;;;;0.57;0.50;;;;;;;7.56;65.01;99565.91;5167630;27;41858;-77
2021/10/01 03:50:23;;;;;;;0.50;0.47;;;;;;;7.55;65.25;99556.25;5150231;27;41778;-78
2021/10/01 03:52:51;;;;;;;0.50;0.50;;;;;;;7.56;65.08;99565.91;5132814;27;42644;-77
2021/10/01 03:55:21;;;;;;;0.63;0.63;;;;;;;7.55;65.09;99560.69;5132816;27;39184;-78
2021/10/01 03:57:52;;;;;;;0.67;0.43;;;;;;;7.54;65.14;99562.47;5167852;27;42009;-78
2021/10/01 04:00:21;;;;;;;1.20;0.50;;;;;;;7.50;64.91;99560.88;5148950;27;42158;-77
2021/10/01 04:02:49;;;;;;;0.60;0.60;;;;;;;7.48;65.08;99557.44;5167494;27;43089;-78
2021/10/01 04:05:20;;;;;;;0.50;0.50;;;;;;;7.44;65.08;99550.56;5132447;27;39511;-77
2021/10/01 04:07:48;;;;;;;0.50;0.50;;;;;;;7.39;65.21;99557.81;5148329;27;42029;-76
2021/10/01 04:10:18;;;;;;;0.47;0.47;;;;;;;7.36;65.03;99557.91;5167897;27;43106;-79
2021/10/01 04:12:45;;;;;;;0.70;0.70;;;;;;;7.35;64.94;99560.59;5150184;27;42223;-77
2021/10/01 04:15:26;;;;;;;1.23;1.00;;;;;;;7.32;65.59;99550.16;5166631;27;40164;-78
2021/10/01 04:17:54;;;;;;;1.07;0.90;;;;;;;7.21;65.46;99538.28;5168046;27;41743;-80
2021/10/01 04:20:22;;;;;;;0.77;0.70;;;;;;;7.25;65.35;99557.47;5150870;27;41874;-81
2021/10/01 04:22:50;;;;;;;0.80;0.80;;;;;;;7.16;65.42;99540.25;5149997;27;42408;-79
2021/10/01 04:25:40;;;;;;;0.90;0.90;;;;;;;7.17;65.32;99543.72;5130756;27;39722;-78
2021/10/01 04:28:09;;;;;;;0.60;0.60;;;;;;;7.10;65.53;99539.59;5164164;27;42781;-80
2021/10/01 04:30:42;;;;;;;0.70;0.70;;;;;;;7.18;65.34;99553.31;5146635;27;41796;-76
2021/10/01 04:33:17;;;;;;;0.40;0.40;;;;;;;7.15;65.37;99546.41;5111930;27;41492;-79
2021/10/01 04:35:45;;;;;;;0.83;0.57;;;;;;;7.14;65.65;99546.47;5150615;27;41661;-77
2021/10/01 04:38:14;;;;;;;0.73;0.70;;;;;;;7.11;65.44;99557.97;5167556;27;41690;-79
2021/10/01 04:40:42;;;;;;;0.60;0.50;;;;;;;7.01;65.40;99542.56;5167743;27;43820;-77
2021/10/01 04:43:10;;;;;;;0.90;0.47;;;;;;;7.06;65.35;99559.03;5149411;27;41134;-76
2021/10/01 04:45:53;;;;;;;0.87;0.87;;;;;;;7.05;65.43;99554.69;5149946;27;41262;-79
2021/10/01 04:48:20;;;;;;;0.93;0.63;;;;;;;7.03;65.37;99557.41;5166935;27;42059;-78
2021/10/01 04:50:48;;;;;;;0.73;0.70;;;;;;;7.00;65.32;99564.56;5148643;27;41943;-76
2021/10/01 04:53:16;;;;;;;0.70;0.70;;;;;;;7.00;65.38;99554.03;5149996;27;42548;-79
2021/10/01 04:55:46;;;;;;;0.70;0.57;;;;;;;6.99;65.41;99552.31;5148945;27;40115;-77
2021/10/01 04:58:14;;;;;;;1.00;0.50;;;;;;;6.95;65.28;99551.53;5131793;27;40827;-76
2021/10/01 05:01:15;;;;;;;1.13;0.73;;;;;;;6.91;65.28;99547.31;5124598;27;42211;-79
2021/10/01 05:04:05;;;;;;;1.23;1.03;;;;;;;6.90;65.51;99547.38;5150321;27;42782;-77
2021/10/01 05:06:38;;;;;;;2.50;1.60;;;;;;;6.83;65.47;99537.06;5148869;27;40556;-77
2021/10/01 05:09:24;;;;;;;3.37;1.17;;;;;;;6.88;65.38;99549.22;5133222;27;42061;-79
2021/10/01 05:12:11;;;;;;;1.47;1.37;;;;;;;6.85;65.65;99548.41;5154383;27;44304;-77
2021/10/01 05:14:57;;;;;;;2.20;0.93;;;;;;;6.81;65.61;99549.41;5152523;27;42445;-78
2021/10/01 05:18:04;;;;;;;1.47;1.30;;;;;;;6.81;65.56;99549.41;5077915;28;39077;-80
2021/10/01 05:20:50;;;;;;;2.17;1.50;;;;;;;6.81;65.62;99557.31;5106556;28;41462;-78
2021/10/01 05:23:26;;;;;;;1.80;1.33;;;;;;;6.83;65.63;99557.25;5102142;27;42855;-80
2021/10/01 05:25:54;;;;;;;1.90;1.20;;;;;;;6.83;65.74;99558.13;5133490;27;41711;-79
2021/10/01 05:28:21;;;;;;;2.10;1.10;;;;;;;6.79;65.70;99538.09;5153874;27;40936;-83
2021/10/01 05:30:49;;;;;;;1.57;1.23;;;;;;;6.76;65.96;99534.72;5152582;27;41553;-83
2021/10/01 05:33:18;;;;;;;2.97;1.20;;;;;;;6.79;65.83;99540.75;5135025;27;43177;-85
2021/10/01 05:35:46;;;;;;;1.57;1.00;;;;;;;6.94;65.66;99560.34;5152632;27;42662;-83
2021/10/01 05:38:15;;;;;;;1.93;1.03;;;;;;;6.87;65.86;99545.72;5134472;27;39602;-84
2021/10/01 05:40:43;;;;;;;1.30;1.00;;;;;;;7.00;65.72;99557.50;5151509;27;41103;-84
2021/10/01 05:43:11;;;;;;;0.83;0.70;;;;;;;6.99;65.62;99547.03;5134398;27;42074;-84
2021/10/01 05:45:41;;;;;;;1.10;1.00;;;;;;;7.08;65.55;99557.22;5134421;27;41506;-83
2021/10/01 05:48:31;;;;;;;1.17;0.90;;;;;;;7.09;65.51;99551.03;5152329;27;40077;-79
2021/10/01 05:51:17;;;;;;;0.97;0.80;;;;;;;7.15;65.78;99548.19;5152464;27;41976;-80
2021/10/01 05:54:22;;;;;;;0.73;0.73;;;;;;;7.18;65.57;99543.66;5139556;27;41944;-83
2021/10/01 05:56:59;;;;;;;0.87;0.70;;;;;;;7.19;65.51;99537.47;5151189;27;42331;-82
2021/10/01 05:59:46;;;;;;;0.70;0.60;;;;;;;7.30;65.56;99544.94;5149858;27;39020;-86
2021/10/01 06:02:17;;;;;;;0.73;0.67;;;;;;;7.36;65.37;99544.75;5136020;27;41975;-90
2021/10/01 06:04:47;;;;;;;0.50;0.40;;;;;;;7.42;65.25;99547.13;5151731;27;43751;-84
2021/10/01 06:07:15;;;;;;;1.13;0.80;;;;;;;7.50;65.08;99539.78;5152262;27;43004;-81
2021/10/01 06:09:44;;;;;;;0.50;0.50;;;;;;;7.57;65.30;99543.03;5134892;27;39766;-86
2021/10/01 06:12:13;;;;;;;0.60;0.60;;;;;;;7.65;64.98;99545.38;5134239;27;40569;-79
2021/10/01 06:14:46;;;;;;;0.77;0.77;;;;;;;7.63;65.03;99520.84;5150880;27;41839;-84
2021/10/01 06:17:15;;;;;;;0.70;0.70;;;;;;;7.64;65.20;99509.41;5134631;27;41468;-87
2021/10/01 06:19:43;;;;;;;0.70;0.70;;;;;;;7.67;65.51;99503.97;5135679;27;40857;-83
2021/10/01 06:22:13;;;;;;;1.00;0.87;;;;;;;7.96;65.64;99537.94;5134375;27;41969;-82
2021/10/01 06:24:41;;;;;;;0.73;0.73;;;;;;;7.98;65.83;99524.69;5152131;27;42608;-85
2021/10/01 06:27:11;;;;;;;0.97;0.87;;;;;;;8.13;65.59;99527.56;5152509;27;42273;-84
2021/10/01 06:29:39;;;;;;;0.80;0.70;;;;;;;8.12;66.08;99511.78;5150855;27;41017;-89
2021/10/01 06:32:07;;;;;;;1.13;0.87;;;;;;;8.30;66.29;99526.84;5133508;27;40706;-83
2021/10/01 06:34:35;;;;;;;0.70;0.70;;;;;;;8.11;65.83;99481.06;5151223;27;43922;-89
2021/10/01 06:37:03;;;;;;;0.70;0.60;;;;;;;8.37;65.84;99507.22;5133975;27;42462;-89
2021/10/01 06:39:34;;;;;;;1.03;0.90;;;;;;;8.48;65.80;99506.75;5133466;27;39313;-88
2021/10/01 06:42:02;;;;;;;0.83;0.80;;;;;;;8.59;66.03;99501.84;5136079;27;41875;-90
2021/10/01 06:44:32;;;;;;;0.80;0.80;;;;;;;8.57;66.16;99472.03;5136629;27;41711;-85
2021/10/01 06:47:03;;;;;;;1.00;1.00;;;;;;;8.73;65.69;99494.19;5150970;27;42357;-85
2021/10/01 06:49:38;;;;;;;0.80;0.80;;;;;;;9.04;65.78;99527.13;5135002;27;40925;-85
2021/10/01 08:20:09;;;;;;;7.40;5.50;;;;;;;24.27;36.15;99580.63;5150199;27;38859;-80
2021/10/01 08:22:38;;;;;;;1.57;1.47;;;;;;;23.77;35.88;99569.78;5148240;27;41799;-83
2021/10/01 08:25:09;;;;;;;0.90;0.90;;;;;;;24.00;35.50;99543.81;5149108;27;41734;-87
2021/10/01 08:27:37;;;;;;;1.03;0.80;;;;;;;25.30;34.25;99576.47;5130291;27;41107;-82
2021/10/01 08:30:06;;;;;;;4.47;0.90;;;;;;;26.45;31.99;99586.75;5130340;27;40317;-85
2021/10/01 08:32:35;;;;;;;0.80;0.70;;;;;;;27.71;30.26;99592.44;5130104;27;40630;-82
2021/10/01 08:35:03;;;;;;;0.90;0.90;;;;;;;28.20;29.12;99584.53;5147130;27;42032;-82
2021/10/01 08:37:31;;;;;;;0.67;0.67;;;;;;;28.65;29.23;99589.84;5150626;27;41729;-76
2021/10/01 08:39:58;;;;;;;1.60;0.80;;;;;;;28.92;27.85;99608.19;5165900;27;39853;-81
2021/10/01 08:42:47;;;;;;;1.10;1.00;;;;;;;29.47;27.54;99601.97;5165203;27;40849;-82
2021/10/01 08:45:17;;;;;;;0.80;0.80;;;;;;;29.56;27.84;99589.84;5163288;27;43873;-87
2021/10/01 08:47:48;;;;;;;1.80;0.87;;;;;;;29.05;28.46;99570.13;5167349;27;43728;-84
2021/10/01 08:50:19;;;;;;;0.93;0.80;;;;;;;28.63;28.35;99565.50;5164483;27;40230;-82
2021/10/01 08:52:47;;;;;;;0.90;0.90;;;;;;;29.18;28.59;99553.00;5154753;27;41004;-81
2021/10/01 08:55:15;;;;;;;1.03;0.97;;;;;;;30.51;27.44;99569.06;5137520;27;42837;-80
2021/10/01 08:57:44;;;;;;;0.63;0.63;;;;;;;31.26;25.64;99576.13;5133450;27;40936;-80
2021/10/01 09:00:14;;;;;;;0.90;0.80;;;;;;;30.76;26.04;99564.72;5157813;27;39652;-81
2021/10/01 09:02:41;;;;;;;1.47;1.37;;;;;;;29.84;26.34;99542.53;5157952;27;42427;-83
2021/10/01 09:05:11;;;;;;;1.23;0.80;;;;;;;29.34;26.52;99579.16;5139157;27;41909;-81
2021/10/01 09:07:39;;;;;;;1.47;0.80;;;;;;;28.28;27.86;99564.53;5141155;27;41559;-80
2021/10/01 09:10:11;;;;;;;1.30;0.90;;;;;;;27.49;29.40;99528.88;5142260;27;39297;-88
2021/10/01 09:12:39;;;;;;;0.73;0.73;;;;;;;27.04;29.94;99527.19;5138135;27;41049;-80
2021/10/01 09:15:09;;;;;;;1.50;0.70;;;;;;;26.69;30.29;99542.25;5131753;27;42422;-82
2021/10/01 09:17:38;;;;;;;0.87;0.80;;;;;;;25.95;31.14;99532.03;5132049;27;41128;-82
2021/10/01 09:20:07;;;;;;;1.03;0.80;;;;;;;25.33;32.02;99530.03;5150715;27;39900;-78
2021/10/01 09:22:38;;;;;;;1.40;0.80;;;;;;;24.66;32.90;99513.16;5130746;27;40806;-80
2021/10/01 09:25:16;;;;;;;0.73;0.73;;;;;;;24.13;33.94;99499.19;5148737;27;42404;-84
2021/10/01 09:27:48;;;;;;;7.90;6.97;;;;;;;23.69;33.93;99491.31;5131167;27;41601;-84
2021/10/01 09:30:19;;;;;;;4.33;2.67;;;;;;;23.38;35.19;99499.09;5148803;27;39310;-84
2021/10/01 09:33:06;;;;;;;2.43;1.03;;;;;;;23.08;35.28;99486.94;5132676;27;41275;-86
2021/10/01 09:35:34;;;;;;;1.53;0.60;;;;;;;23.00;36.01;99489.59;5147520;27;42572;-79
2021/10/01 09:38:09;;;;;;;0.60;0.60;;;;;;;22.80;36.59;99478.16;5130596;27;42081;-83
2021/10/01 09:40:37;;;;;;;1.27;1.13;;;;;;;22.36;37.13;99420.63;5149167;27;39911;-84
2021/10/01 09:43:05;;;;;;;0.97;0.80;;;;;;;22.52;37.05;99469.31;5150701;27;41997;-84
2021/10/01 09:45:33;;;;;;;1.80;0.90;;;;;;;22.30;37.54;99459.00;5152097;27;41662;-86
2021/10/01 09:48:14;;;;;;;0.90;0.90;;;;;;;22.23;38.17;99457.94;5150199;27;42419;-87
2021/10/01 09:50:41;;;;;;;0.80;0.60;;;;;;;22.15;38.27;99456.00;5133252;27;39846;-85
2021/10/01 09:53:10;;;;;;;1.00;0.90;;;;;;;22.07;38.41;99438.91;5134064;27;41088;-83
2021/10/01 09:55:41;;;;;;;1.53;0.90;;;;;;;22.27;38.43;99434.19;5152979;27;41974;-88
2021/10/01 09:58:10;;;;;;;1.20;1.10;;;;;;;22.53;38.08;99438.59;5133243;27;41384;-82
2021/10/01 10:00:40;;;;;;;0.80;0.70;;;;;;;22.65;38.29;99435.66;5152536;27;39060;-83
2021/10/01 10:03:09;;;;;;;0.70;0.70;;;;;;;22.65;37.79;99422.16;5151372;27;40673;-86
2021/10/01 10:06:00;;;;;;;0.83;0.73;;;;;;;22.86;37.48;99420.81;5136157;27;41679;-87
2021/10/01 10:08:30;;;;;;;0.93;0.73;;;;;;;22.97;38.09;99430.50;5141463;27;42243;-81
2021/10/01 10:10:58;;;;;;;0.70;0.70;;;;;;;23.31;37.31;99427.78;5152711;27;39358;-83
2021/10/01 10:13:43;;;;;;;0.53;0.53;;;;;;;23.40;37.31;99425.94;5149196;27;40847;-81
2021/10/01 10:16:13;;;;;;;0.70;0.70;;;;;;;22.95;38.08;99373.06;5151257;27;42219;-84
2021/10/01 10:18:40;;;;;;;1.23;0.70;;;;;;;23.14;38.14;99413.34;5150494;27;42929;-80
2021/10/01 10:21:09;;;;;;;0.93;0.73;;;;;;;23.46;37.54;99411.78;5151659;27;40380;-82
2021/10/01 10:23:38;;;;;;;0.70;0.70;;;;;;;24.97;35.51;99423.06;5152599;27;41732;-85
2021/10/01 10:28:49;;;;;;;0.60;0.60;;;;;;;26.00;33.85;99432.72;5133010;27;41067;-86
2021/10/01 10:31:20;;;;;;;0.90;0.70;;;;;;;26.27;34.03;99422.34;5151300;27;40266;-88
2021/10/01 10:33:50;;;;;;;0.67;0.60;;;;;;;26.90;33.21;99418.38;5133334;27;41416;-88
2021/10/01 10:36:33;;;;;;;0.87;0.87;;;;;;;28.46;30.55;99427.81;5134212;27;41817;-87
2021/10/01 10:40:01;;;;;;;0.80;0.80;;;;;;;30.09;28.39;99425.41;5133469;27;41296;-86
2021/10/01 10:42:35;;;;;;;1.50;0.77;;;;;;;32.02;26.11;99442.13;5134822;27;39990;-86
2021/10/01 10:45:13;;;;;;;1.27;1.10;;;;;;;33.43;24.15;99450.66;5151409;27;41959;-88
2021/10/01 10:47:50;;;;;;;0.70;0.70;;;;;;;34.59;22.89;99445.69;5149308;27;42847;-89
2021/10/01 10:50:37;;;;;;;0.90;0.90;;;;;;;34.93;22.12;99452.31;5152386;27;42933;-86
2021/10/01 10:53:17;;;;;;;0.82;0.82;;;;;;;35.86;21.06;99448.59;5133278;27;39876;-87
2021/10/01 10:55:52;;;;;;;1.20;1.10;;;;;;;36.89;19.88;99446.63;5133760;27;40695;-83
2021/10/01 10:58:36;;;;;;;1.10;0.73;;;;;;;37.68;19.26;99450.00;5149521;27;43853;-88
2021/10/01 11:01:47;;;;;;;1.42;1.08;;;;;;;37.70;19.17;99447.81;5150400;27;41434;-84
2021/10/01 11:07:06;;;;;;;0.90;0.68;;;;;;;40.22;17.70;99431.34;5129671;27;40742;-83
2021/10/01 11:09:35;;;;;;;0.70;0.70;;;;;;;41.73;16.53;99417.56;5132596;27;41730;-85
2021/10/01 11:12:23;;;;;;;0.77;0.60;;;;;;;42.89;14.17;99434.59;5150238;27;41517;-86
2021/10/01 11:15:12;;;;;;;0.50;0.50;;;;;;;43.39;14.44;99438.84;5142656;27;39457;-83
2021/10/01 11:17:40;;;;;;;0.70;0.70;;;;;;;44.39;14.21;99415.41;5142080;27;42347;-82
2021/10/01 11:20:07;;;;;;;0.47;0.43;;;;;;;45.26;13.41;99414.72;5151986;27;42603;-83
2021/10/01 11:22:38;;;;;;;0.57;0.50;;;;;;;45.82;13.21;99405.97;5131026;27;41197;-80
2021/10/01 11:25:12;;;;;;;0.68;0.68;;;;;;;45.64;12.90;99404.97;5151197;27;40006;-81
2021/10/01 11:27:51;;;;;;;0.60;0.60;;;;;;;44.09;13.92;99391.59;5168071;27;41456;-82
2021/10/01 11:30:19;;;;;;;0.77;0.63;;;;;;;42.42;15.17;99365.63;5150075;27;42962;-85
2021/10/01 11:32:46;;;;;;;0.38;0.32;;;;;;;41.63;15.35;99375.91;5148146;27;41354;-77
2021/10/01 11:35:16;;;;;;;0.70;0.70;;;;;;;42.00;15.29;99369.84;5151626;27;41611;-88
2021/10/01 11:37:48;;;;;;;0.50;0.50;;;;;;;43.04;13.81;99375.06;5148964;27;41799;-86
2021/10/01 11:40:21;;;;;;;0.55;0.43;;;;;;;44.16;13.28;99377.22;5150143;27;42010;-88
2021/10/01 11:42:53;;;;;;;0.45;0.45;;;;;;;44.70;12.51;99348.66;5132244;27;42076;-88
2021/10/01 11:45:23;;;;;;;0.40;0.40;;;;;;;45.24;12.16;99369.47;5131975;27;39994;-87
2021/10/01 11:47:59;;;;;;;0.95;0.70;;;;;;;45.73;12.05;99357.50;5149626;27;40623;-88
2021/10/01 11:50:32;;;;;;;0.70;0.50;;;;;;;45.87;11.82;99315.44;5151081;27;42497;-92
2021/10/01 11:53:02;;;;;;;0.52;0.50;;;;;;;45.85;11.59;99349.38;5130910;27;42449;-91
2021/10/01 11:55:45;;;;;;;0.50;0.50;;;;;;;45.55;11.38;99344.47;5133975;27;39729;-91
2021/10/01 11:58:20;;;;;;;1.40;1.17;;;;;;;45.17;12.22;99343.84;5132416;27;41162;-87
2021/10/01 12:00:48;;;;;;;0.40;0.40;;;;;;;44.95;12.45;99316.59;5150238;27;41686;-88
2021/10/01 12:03:38;;;;;;;0.40;0.40;;;;;;;44.90;11.92;99317.53;5130827;27;43148;-90
2021/10/01 12:08:56;;;;;;;0.60;0.60;;;;;;;45.20;11.90;99321.69;5132902;27;41202;-88
2021/10/01 12:11:26;;;;;;;0.52;0.52;;;;;;;45.03;11.76;99316.69;5133147;27;42213;-87
2021/10/01 12:13:55;;;;;;;0.60;0.60;;;;;;;44.56;12.59;99292.75;5150431;27;42214;-86
2021/10/01 12:16:39;;;;;;;0.40;0.40;;;;;;;44.26;11.77;99291.34;5150887;27;40239;-90
2021/10/01 12:19:08;;;;;;;0.30;0.30;;;;;;;44.13;11.98;99308.88;5112752;27;40932;-81
2021/10/01 12:21:36;;;;;;;0.40;0.40;;;;;;;43.66;12.00;99280.00;5150049;27;42924;-86
2021/10/01 12:24:14;;;;;;;0.50;0.50;;;;;;;42.68;12.71;99272.31;5147697;27;42578;-90
2021/10/01 12:26:48;;;;;;;0.68;0.57;;;;;;;41.70;12.92;99278.19;5150301;27;39902;-89
2021/10/01 12:29:21;;;;;;;0.50;0.50;;;;;;;40.79;13.90;99218.38;5130011;27;40968;-91
2021/10/01 12:31:55;;;;;;;0.50;0.50;;;;;;;40.55;13.98;99274.50;5131387;27;43084;-81
2021/10/01 12:34:24;;;;;;;0.57;0.57;;;;;;;40.13;14.68;99260.13;5148662;27;42296;-89
2021/10/01 12:36:54;;;;;;;0.60;0.60;;;;;;;39.78;14.42;99255.41;5131662;27;38970;-79
2021/10/01 12:39:24;;;;;;;0.60;0.60;;;;;;;39.93;14.32;99243.50;5147727;27;41646;-80
2021/10/01 12:42:07;;;;;;;0.55;0.55;;;;;;;40.37;14.11;99254.84;5147866;27;42475;-82
2021/10/01 12:44:39;;;;;;;1.33;1.20;;;;;;;40.44;14.53;99233.16;5131009;27;42591;-80
2021/10/01 12:47:13;;;;;;;0.90;0.90;;;;;;;40.52;13.77;99246.50;5149167;27;40504;-79
2021/10/01 12:49:41;;;;;;;0.60;0.60;;;;;;;40.52;14.02;99247.31;5149157;27;40645;-80
2021/10/01 12:52:15;;;;;;;0.98;0.68;;;;;;;40.76;13.97;99242.00;5148961;27;42844;-83
2021/10/01 12:54:50;;;;;;;0.40;0.40;;;;;;;41.04;14.04;99239.66;5148062;27;42209;-86
2021/10/01 12:57:24;;;;;;;0.50;0.43;;;;;;;41.34;13.71;99242.25;5148611;27;39615;-83
2021/10/01 13:00:10;;;;;;;0.60;0.50;;;;;;;41.52;13.64;99232.44;5129546;27;40967;-90
2021/10/01 13:05:23;;;;;;;0.80;0.60;;;;;;;41.79;13.66;99188.25;5130829;27;41793;-88
2021/10/01 13:08:13;;;;;;;1.38;0.70;;;;;;;41.94;13.38;99213.16;5131228;27;40994;-85
2021/10/01 13:10:48;;;;;;;0.75;0.75;;;;;;;41.75;13.75;99190.00;5149564;27;42579;-86
2021/10/01 13:13:18;;;;;;;0.80;0.80;;;;;;;42.21;13.04;99200.69;5131604;27;43041;-84
2021/10/01 13:15:51;;;;;;;0.52;0.52;;;;;;;42.18;13.21;99201.28;5131846;27;42210;-85
2021/10/01 13:18:27;;;;;;;0.60;0.60;;;;;;;42.13;13.50;99188.25;5147861;27;39921;-84
2021/10/01 13:21:06;;;;;;;0.75;0.57;;;;;;;42.11;13.35;99178.53;5165851;27;42530;-87
2021/10/01 13:23:36;;;;;;;0.52;0.52;;;;;;;41.90;13.69;99183.47;5137399;27;42918;-84
2021/10/01 13:26:11;;;;;;;0.65;0.65;;;;;;;41.58;14.34;99178.44;5149759;27;42507;-85
2021/10/01 13:28:39;;;;;;;0.75;0.60;;;;;;;41.58;14.06;99159.81;5131917;27;39136;-89
2021/10/01 13:31:08;;;;;;;0.68;0.68;;;;;;;41.68;14.74;99166.38;5129320;27;43662;-86
2021/10/01 13:33:36;;;;;;;0.70;0.60;;;;;;;41.41;13.78;99178.00;5149227;27;43682;-87
2021/10/01 13:36:04;;;;;;;0.67;0.67;;;;;;;41.02;13.78;99181.56;5132262;27;41830;-86
2021/10/01 13:38:34;;;;;;;1.52;0.90;;;;;;;40.74;14.32;99166.44;5131561;27;39864;-90
2021/10/01 13:41:03;;;;;;;0.50;0.50;;;;;;;40.52;14.75;99165.97;5130488;27;41614;-82
2021/10/01 13:43:31;;;;;;;0.50;0.50;;;;;;;40.42;14.35;99161.28;5129951;27;42621;-81
2021/10/01 13:46:00;;;;;;;0.53;0.53;;;;;;;40.53;14.50;99160.13;5148938;27;43318;-83